createdAt,value
2019-06-27T00:01:22.327Z,64.44
2019-06-27T00:03:53.024Z,64.36
2019-06-27T00:06:23.741Z,66.15
2019-06-27T00:08:54.447Z,65.52
2019-06-27T00:11:25.177Z,66.35
2019-06-27T00:13:56.019Z,66.75
2019-06-27T00:16:26.757Z,66.97
2019-06-27T00:18:57.601Z,66.25
2019-06-27T00:21:28.331Z,66.28
2019-06-27T00:23:59.111Z,66.86
2019-06-27T00:26:29.918Z,67.06
2019-06-27T00:29:00.643Z,66.84
2019-06-27T00:31:31.627Z,67.34
2019-06-27T00:34:02.383Z,67.28
2019-06-27T00:36:33.140Z,67.31
2019-06-27T00:39:04.990Z,66.46
2019-06-27T00:41:36.069Z,66.78
2019-06-27T00:44:06.837Z,67.82
2019-06-27T00:46:39.990Z,68.58
2019-06-27T00:49:10.744Z,69.17
2019-06-27T00:51:45.038Z,68.84
2019-06-27T00:54:13.990Z,70.75
2019-06-27T00:56:44.728Z,72.00
2019-06-27T00:59:15.408Z,72.07
2019-06-27T01:01:46.216Z,72.63
2019-06-27T01:04:17.049Z,73.08
2019-06-27T01:06:48.948Z,73.88
2019-06-27T01:09:20.109Z,75.67
2019-06-27T01:11:50.850Z,77.45
2019-06-27T01:14:21.552Z,77.59
2019-06-27T01:16:52.278Z,76.37
2019-06-27T01:19:22.993Z,74.31
2019-06-27T01:21:53.868Z,72.34
2019-06-27T01:24:24.591Z,70.09
2019-06-27T01:26:55.383Z,70.27
2019-06-27T01:29:26.133Z,70.51
2019-06-27T01:31:56.845Z,70.09
2019-06-27T01:34:27.607Z,70.64
2019-06-27T01:36:58.347Z,70.92
2019-06-27T01:39:29.328Z,70.78
2019-06-27T01:42:00.213Z,71.13
2019-06-27T01:44:56.977Z,70.31
2019-06-27T01:47:27.753Z,72.86
2019-06-27T01:49:58.485Z,72.07
2019-06-27T01:52:29.598Z,71.11
2019-06-27T01:55:00.315Z,70.29
2019-06-27T01:57:45.650Z,70.63
2019-06-27T02:00:03.905Z,70.61
2019-06-27T02:02:34.685Z,70.22
2019-06-27T02:05:05.921Z,69.91
2019-06-27T02:07:36.646Z,69.58
2019-06-27T02:10:08.393Z,69.87
2019-06-27T02:12:39.174Z,70.67
2019-06-27T02:15:10.144Z,70.50
2019-06-27T02:17:41.161Z,69.94
2019-06-27T02:20:12.380Z,70.27
2019-06-27T02:22:43.107Z,71.55
2019-06-27T02:25:14.164Z,71.67
2019-06-27T02:27:44.965Z,71.33
2019-06-27T02:30:17.599Z,70.08
2019-06-27T02:32:48.309Z,70.24
2019-06-27T02:35:19.141Z,68.86
2019-06-27T02:37:49.854Z,68.97
2019-06-27T02:40:22.041Z,69.53
2019-06-27T02:42:53.361Z,69.75
2019-06-27T02:45:25.327Z,69.67
2019-06-27T02:47:56.382Z,70.83
2019-06-27T02:50:27.466Z,71.93
2019-06-27T02:52:58.196Z,70.99
2019-06-27T02:55:29.177Z,74.12
2019-06-27T02:58:00.331Z,73.64
2019-06-27T03:00:31.191Z,73.73
2019-06-27T03:03:02.076Z,74.62
2019-06-27T03:05:32.813Z,73.47
2019-06-27T03:08:03.785Z,72.71
2019-06-27T03:10:34.637Z,73.25
2019-06-27T03:13:05.353Z,74.46
2019-06-27T03:15:36.245Z,73.77
2019-06-27T03:18:06.978Z,73.10
2019-06-27T03:20:37.713Z,74.12
2019-06-27T03:23:08.444Z,75.83
2019-06-27T03:25:39.197Z,75.17
2019-06-27T03:28:10.094Z,75.92
2019-06-27T03:30:41.449Z,75.12
2019-06-27T03:33:12.359Z,74.93
2019-06-27T03:35:43.112Z,73.53
2019-06-27T03:38:15.022Z,73.03
2019-06-27T03:40:46.041Z,72.25
2019-06-27T03:43:16.900Z,71.64
2019-06-27T03:45:48.705Z,70.96
2019-06-27T03:48:19.469Z,70.40
2019-06-27T03:50:50.163Z,70.17
2019-06-27T03:53:20.919Z,72.50
2019-06-27T03:55:51.624Z,70.70
2019-06-27T03:58:22.515Z,70.67
2019-06-27T04:00:53.396Z,69.19
2019-06-27T04:03:24.404Z,69.15
2019-06-27T04:05:55.220Z,68.65
2019-06-27T04:08:25.959Z,68.35
2019-06-27T04:10:57.066Z,67.60
2019-06-27T04:13:27.804Z,67.12
2019-06-27T04:15:58.513Z,67.73
2019-06-27T04:18:29.668Z,67.51
2019-06-27T04:21:00.387Z,66.99
2019-06-27T04:23:31.125Z,66.01
2019-06-27T04:26:02.060Z,65.72
2019-06-27T04:28:32.809Z,67.13
2019-06-27T04:31:03.590Z,65.09
2019-06-27T04:33:34.333Z,63.27
2019-06-27T04:36:05.041Z,60.87
2019-06-27T04:38:36.059Z,59.73
2019-06-27T04:41:06.935Z,59.00
2019-06-27T04:43:37.665Z,57.48
2019-06-27T04:46:08.697Z,54.97
2019-06-27T04:48:39.749Z,53.87
2019-06-27T04:51:10.438Z,53.01
2019-06-27T04:53:41.183Z,52.07
2019-06-27T04:56:11.902Z,50.90
2019-06-27T04:58:42.699Z,51.54
2019-06-27T05:01:13.759Z,52.86
2019-06-27T05:03:44.568Z,53.11
2019-06-27T05:06:15.293Z,50.13
2019-06-27T05:08:46.431Z,48.36
2019-06-27T05:11:17.350Z,47.79
2019-06-27T05:13:48.182Z,47.89
2019-06-27T05:16:18.869Z,50.15
2019-06-27T05:18:49.755Z,51.78
2019-06-27T05:21:20.453Z,54.18
2019-06-27T05:23:51.424Z,52.75
2019-06-27T05:26:22.419Z,52.88
2019-06-27T05:28:54.182Z,54.55
2019-06-27T05:31:24.946Z,53.44
2019-06-27T05:33:55.905Z,50.42
2019-06-27T05:36:26.643Z,48.62
2019-06-27T05:38:57.452Z,46.26
2019-06-27T05:41:28.288Z,45.21
2019-06-27T05:43:59.008Z,43.05
2019-06-27T05:46:30.059Z,41.83
2019-06-27T05:49:00.809Z,41.25
2019-06-27T05:51:31.511Z,39.13
2019-06-27T05:54:02.475Z,38.28
2019-06-27T05:56:33.176Z,37.95
2019-06-27T05:59:03.937Z,38.12
2019-06-27T06:01:34.999Z,38.21
2019-06-27T06:04:06.013Z,39.71
2019-06-27T06:06:36.752Z,39.90
2019-06-27T06:09:07.622Z,41.96
2019-06-27T06:11:38.474Z,44.55
2019-06-27T06:14:09.184Z,42.94
2019-06-27T06:16:39.990Z,44.92
2019-06-27T06:19:10.789Z,44.75
2019-06-27T06:21:41.522Z,45.07
2019-06-27T06:24:12.207Z,45.76
2019-06-27T06:26:42.928Z,44.60
2019-06-27T06:29:13.841Z,44.69
2019-06-27T06:31:44.612Z,44.30
2019-06-27T06:34:15.451Z,44.55
2019-06-27T06:36:46.349Z,44.47
2019-06-27T06:39:17.059Z,45.70
2019-06-27T06:41:47.895Z,45.08
2019-06-27T06:44:18.584Z,46.69
2019-06-27T06:46:49.333Z,46.54
2019-06-27T06:49:20.546Z,48.85
2019-06-27T06:51:51.415Z,51.87
2019-06-27T06:54:22.101Z,52.96
2019-06-27T06:56:53.027Z,53.58
2019-06-27T06:59:24.723Z,55.23
2019-06-27T07:01:55.476Z,56.14
2019-06-27T07:04:26.209Z,56.23
2019-06-27T07:06:56.980Z,57.57
2019-06-27T07:09:27.850Z,57.08
2019-06-27T07:11:58.680Z,58.26
2019-06-27T07:14:29.434Z,58.86
2019-06-27T07:17:00.258Z,58.56
2019-06-27T07:19:30.968Z,58.50
2019-06-27T07:22:01.772Z,58.29
2019-06-27T07:24:32.490Z,58.45
2019-06-27T07:27:03.308Z,59.40
2019-06-27T07:29:34.238Z,59.62
2019-06-27T07:32:04.994Z,59.94
2019-06-27T07:34:35.798Z,60.81
2019-06-27T07:37:06.572Z,60.76
2019-06-27T07:39:37.468Z,59.82
2019-06-27T07:42:08.218Z,59.88
2019-06-27T07:44:38.938Z,60.36
2019-06-27T07:47:09.722Z,59.39
2019-06-27T07:49:40.833Z,59.24
2019-06-27T07:52:11.837Z,59.49
2019-06-27T07:54:42.605Z,59.61
2019-06-27T07:57:13.438Z,59.57
2019-06-27T07:59:44.340Z,59.03
2019-06-27T08:02:16.358Z,59.38
2019-06-27T08:04:47.369Z,59.42
2019-06-27T08:07:21.193Z,57.41
2019-06-27T08:09:51.135Z,57.50
2019-06-27T08:12:21.866Z,60.44
2019-06-27T08:14:52.580Z,57.46
2019-06-27T08:17:23.708Z,58.03
2019-06-27T08:19:55.006Z,56.33
2019-06-27T08:22:26.011Z,56.71
2019-06-27T08:24:56.751Z,55.90
2019-06-27T08:27:28.591Z,56.41
2019-06-27T08:29:59.635Z,55.27
2019-06-27T08:32:30.887Z,56.43
2019-06-27T08:35:01.872Z,57.03
2019-06-27T08:37:32.645Z,56.56
2019-06-27T08:40:03.472Z,55.92
2019-06-27T08:42:34.529Z,56.86
2019-06-27T08:45:06.768Z,55.56
2019-06-27T08:47:37.948Z,54.71
2019-06-27T08:50:09.360Z,55.20
2019-06-27T08:52:40.123Z,54.86
2019-06-27T08:55:11.265Z,55.03
2019-06-27T08:57:41.940Z,55.08
2019-06-27T09:00:13.175Z,54.77
2019-06-27T09:02:43.837Z,55.07
2019-06-27T09:05:14.998Z,54.49
2019-06-27T09:07:45.695Z,54.79
2019-06-27T09:10:16.903Z,53.59
2019-06-27T09:12:47.632Z,53.56
2019-06-27T09:15:19.591Z,53.98
2019-06-27T09:17:50.338Z,54.19
2019-06-27T09:20:21.920Z,52.80
2019-06-27T09:22:52.632Z,52.52
2019-06-27T09:25:23.481Z,52.75
2019-06-27T09:27:54.418Z,51.86
2019-06-27T09:30:25.660Z,52.16
2019-06-27T09:32:56.419Z,51.26
2019-06-27T09:35:27.228Z,49.37
2019-06-27T09:37:57.995Z,48.93
2019-06-27T09:40:28.746Z,48.66
2019-06-27T09:42:59.553Z,48.70
2019-06-27T09:45:30.287Z,49.56
2019-06-27T09:48:01.018Z,49.00
2019-06-27T09:50:31.716Z,48.77
2019-06-27T09:53:03.623Z,48.59
2019-06-27T09:55:34.549Z,49.33
2019-06-27T09:58:05.338Z,48.23
2019-06-27T10:00:36.086Z,47.86
2019-06-27T10:03:07.064Z,47.73
2019-06-27T10:05:37.844Z,48.07
2019-06-27T10:08:08.593Z,46.96
2019-06-27T10:10:39.476Z,47.38
2019-06-27T10:13:10.201Z,47.37
2019-06-27T10:15:40.941Z,48.38
2019-06-27T10:18:11.673Z,46.85
2019-06-27T10:20:42.447Z,45.64
2019-06-27T10:23:13.516Z,46.34
2019-06-27T10:25:44.233Z,45.94
2019-06-27T10:28:14.970Z,44.49
2019-06-27T10:30:49.139Z,45.66
2019-06-27T10:33:18.499Z,45.10
2019-06-27T10:35:49.355Z,42.78
2019-06-27T10:38:20.079Z,42.53
2019-06-27T10:40:50.783Z,44.42
2019-06-27T10:43:21.650Z,44.30
2019-06-27T10:45:52.430Z,41.29
2019-06-27T10:48:23.288Z,41.42
2019-06-27T10:50:54.868Z,41.65
2019-06-27T10:53:26.712Z,41.78
2019-06-27T10:55:57.786Z,40.97
2019-06-27T10:58:28.523Z,41.80
2019-06-27T11:00:59.211Z,43.93
2019-06-27T11:03:30.210Z,43.63
2019-06-27T11:06:00.912Z,44.25
2019-06-27T11:08:31.669Z,43.58
2019-06-27T11:11:02.426Z,42.63
2019-06-27T11:13:33.191Z,43.95
2019-06-27T11:16:04.029Z,42.70
2019-06-27T11:18:34.748Z,41.82
2019-06-27T11:21:05.603Z,40.83
2019-06-27T11:23:36.302Z,42.01
2019-06-27T11:26:09.407Z,39.50
2019-06-27T11:28:39.510Z,39.16
2019-06-27T11:31:10.358Z,39.28
2019-06-27T11:33:41.561Z,41.84
2019-06-27T11:36:12.560Z,42.72
2019-06-27T11:38:43.272Z,42.87
2019-06-27T11:41:14.063Z,40.88
2019-06-27T11:43:44.808Z,40.55
2019-06-27T11:46:15.723Z,39.97
2019-06-27T11:48:46.468Z,41.47
2019-06-27T11:51:17.148Z,40.70
2019-06-27T11:53:47.867Z,41.59
2019-06-27T11:56:18.594Z,41.68
2019-06-27T11:58:49.293Z,41.38
2019-06-27T12:01:20.150Z,42.04
2019-06-27T12:03:50.873Z,41.14
2019-06-27T12:06:21.728Z,40.89
2019-06-27T12:08:52.469Z,40.35
2019-06-27T12:11:23.164Z,40.67
2019-06-27T12:13:54.843Z,41.09
2019-06-27T12:16:25.560Z,41.33
2019-06-27T12:18:56.299Z,40.67
2019-06-27T12:21:27.024Z,41.96
2019-06-27T12:23:58.143Z,43.88
2019-06-27T12:26:28.914Z,45.09
2019-06-27T12:28:59.615Z,44.07
2019-06-27T12:31:30.454Z,44.70
2019-06-27T12:34:06.877Z,43.72
2019-06-27T12:36:33.802Z,44.28
2019-06-27T12:39:04.548Z,43.24
2019-06-27T12:41:36.431Z,43.76
2019-06-27T12:44:07.410Z,46.53
2019-06-27T12:46:38.153Z,43.33
2019-06-27T12:49:08.880Z,43.22
2019-06-27T12:51:39.813Z,43.43
2019-06-27T12:54:10.537Z,42.88
2019-06-27T12:56:41.378Z,43.79
2019-06-27T12:59:12.060Z,43.00
2019-06-27T13:01:42.777Z,43.70
2019-06-27T13:04:23.480Z,43.02
2019-06-27T13:06:46.284Z,43.43
2019-06-27T13:09:17.165Z,43.41
2019-06-27T13:11:47.871Z,42.61
2019-06-27T13:14:18.589Z,43.46
2019-06-27T13:16:49.435Z,42.88
2019-06-27T13:19:20.101Z,42.72
2019-06-27T13:21:51.033Z,43.09
2019-06-27T13:24:21.735Z,42.86
2019-06-27T13:26:52.455Z,41.73
2019-06-27T13:29:26.737Z,41.27
2019-06-27T13:31:55.766Z,41.29
2019-06-27T13:34:39.985Z,41.31
2019-06-27T13:36:59.103Z,40.88
2019-06-27T13:39:29.788Z,40.91
2019-06-27T13:42:00.533Z,40.77
2019-06-27T13:44:31.551Z,41.90
2019-06-27T13:47:02.278Z,41.50
2019-06-27T13:49:32.975Z,41.75
2019-06-27T13:52:03.797Z,41.43
2019-06-27T13:54:34.531Z,43.22
2019-06-27T13:57:05.699Z,41.90
2019-06-27T13:59:37.465Z,42.89
2019-06-27T14:02:08.112Z,41.23
2019-06-27T14:04:39.042Z,41.40
2019-06-27T14:07:09.811Z,41.23
2019-06-27T14:09:52.224Z,41.68
2019-06-27T14:12:12.903Z,42.78
2019-06-27T14:14:58.790Z,41.90
2019-06-27T14:17:16.109Z,42.86
2019-06-27T14:19:50.679Z,42.57
2019-06-27T14:22:32.746Z,43.89
2019-06-27T14:24:52.279Z,40.77
2019-06-27T14:27:23.052Z,40.27
2019-06-27T14:29:56.583Z,41.26
2019-06-27T14:32:26.802Z,41.63
2019-06-27T14:35:14.034Z,42.75
2019-06-27T14:37:30.113Z,42.17
2019-06-27T14:40:00.821Z,42.69
2019-06-27T14:42:31.561Z,42.96
2019-06-27T14:45:02.423Z,41.52
2019-06-27T14:47:33.125Z,40.92
2019-06-27T14:50:04.381Z,40.66
2019-06-27T14:52:35.275Z,41.16
2019-06-27T14:55:07.229Z,41.83
2019-06-27T14:57:38.072Z,42.29
2019-06-27T15:00:09.015Z,40.41
2019-06-27T15:02:39.853Z,40.87
2019-06-27T15:05:10.572Z,40.42
2019-06-27T15:07:41.277Z,39.83
2019-06-27T15:10:12.709Z,40.61
2019-06-27T15:12:56.342Z,39.17
2019-06-27T15:15:17.335Z,39.27
2019-06-27T15:17:48.041Z,39.08
2019-06-27T15:20:19.060Z,39.37
2019-06-27T15:22:49.762Z,39.04
2019-06-27T15:25:20.550Z,38.43
2019-06-27T15:27:51.769Z,38.56
2019-06-27T15:30:22.598Z,39.78
2019-06-27T15:32:54.286Z,40.07
2019-06-27T15:35:25.099Z,40.54
2019-06-27T15:37:55.849Z,39.96
2019-06-27T15:40:26.591Z,40.46
2019-06-27T15:42:57.785Z,39.97
2019-06-27T15:45:28.673Z,41.21
2019-06-27T15:47:59.369Z,41.30
2019-06-27T15:50:30.196Z,40.59
2019-06-27T15:53:00.921Z,39.76
2019-06-27T15:55:31.628Z,40.61
2019-06-27T15:58:02.834Z,39.92
2019-06-27T16:00:39.159Z,40.79
2019-06-27T16:03:08.445Z,39.23
2019-06-27T16:05:39.257Z,38.52
2019-06-27T16:08:10.188Z,38.71
2019-06-27T16:10:40.932Z,37.67
2019-06-27T16:13:11.757Z,37.47
2019-06-27T16:15:42.436Z,37.48
2019-06-27T16:18:13.274Z,36.88
2019-06-27T16:20:44.051Z,35.48
2019-06-27T16:23:15.852Z,35.44
2019-06-27T16:25:47.626Z,35.21
2019-06-27T16:28:18.373Z,34.98
2019-06-27T16:30:49.132Z,34.81
2019-06-27T16:33:19.937Z,33.62
2019-06-27T16:35:50.664Z,34.08
2019-06-27T16:38:22.429Z,34.90
2019-06-27T16:40:53.178Z,33.75
2019-06-27T16:43:23.966Z,33.87
2019-06-27T16:45:54.802Z,33.80
2019-06-27T16:48:25.550Z,32.13
2019-06-27T16:50:56.350Z,31.05
2019-06-27T16:53:28.243Z,30.02
2019-06-27T16:55:58.956Z,28.99
2019-06-27T16:58:29.814Z,28.69
2019-06-27T17:01:00.929Z,28.37
2019-06-27T17:03:32.675Z,28.29
2019-06-27T17:06:03.485Z,27.67
2019-06-27T17:08:34.384Z,28.41
2019-06-27T17:11:05.084Z,27.97
2019-06-27T17:13:35.881Z,26.67
2019-06-27T17:16:06.631Z,26.10
2019-06-27T17:18:37.393Z,25.88
2019-06-27T17:21:08.350Z,26.87
2019-06-27T17:23:39.226Z,28.95
2019-06-27T17:26:11.698Z,28.91
2019-06-27T17:28:42.348Z,28.46
2019-06-27T17:31:13.230Z,29.60
2019-06-27T17:33:44.166Z,29.50
2019-06-27T17:36:14.900Z,29.58
2019-06-27T17:38:45.948Z,29.66
2019-06-27T17:41:16.697Z,29.65
2019-06-27T17:43:47.403Z,29.64
2019-06-27T17:46:18.221Z,30.90
2019-06-27T17:48:48.901Z,31.39
2019-06-27T17:51:19.594Z,31.59
2019-06-27T17:53:50.262Z,30.67
2019-06-27T17:56:20.976Z,30.93
2019-06-27T17:58:51.673Z,31.56
2019-06-27T18:01:22.563Z,32.17
2019-06-27T18:03:53.633Z,31.76
2019-06-27T18:06:24.590Z,31.32
2019-06-27T18:08:55.355Z,31.06
2019-06-27T18:11:26.072Z,31.73
2019-06-27T18:13:56.764Z,31.53
2019-06-27T18:16:27.499Z,29.64
2019-06-27T18:19:00.757Z,29.29
2019-06-27T18:21:31.063Z,28.66
2019-06-27T18:24:01.877Z,28.48
2019-06-27T18:26:32.914Z,28.04
2019-06-27T18:29:03.673Z,27.93
2019-06-27T18:31:34.487Z,28.18
2019-06-27T18:34:05.282Z,27.34
2019-06-27T18:36:36.052Z,26.52
2019-06-27T18:39:07.095Z,25.75
2019-06-27T18:41:37.938Z,26.70
2019-06-27T18:44:08.627Z,26.20
2019-06-27T18:46:39.660Z,26.14
2019-06-27T18:49:10.289Z,26.63
2019-06-27T18:51:42.079Z,26.75
2019-06-27T18:54:13.004Z,26.60
2019-06-27T18:56:43.998Z,26.45
2019-06-27T18:59:14.731Z,26.97
2019-06-27T19:01:45.571Z,26.94
2019-06-27T19:04:16.239Z,26.82
2019-06-27T19:06:46.994Z,27.36
2019-06-27T19:09:17.753Z,27.54
2019-06-27T19:11:48.488Z,28.12
2019-06-27T19:14:19.467Z,28.13
2019-06-27T19:16:50.223Z,28.64
2019-06-27T19:19:23.572Z,29.34
2019-06-27T19:22:22.160Z,29.15
2019-06-27T19:25:07.874Z,29.39
2019-06-27T19:27:38.677Z,29.20
2019-06-27T19:30:09.522Z,29.87
2019-06-27T19:32:41.159Z,29.72
2019-06-27T19:35:12.164Z,30.07
2019-06-27T19:37:42.949Z,30.09
2019-06-27T19:40:13.919Z,31.03
2019-06-27T19:42:44.683Z,32.53
2019-06-27T19:45:15.498Z,32.59
2019-06-27T19:47:46.203Z,32.77
2019-06-27T19:50:17.414Z,32.97
2019-06-27T19:52:48.209Z,32.31
2019-06-27T19:55:19.481Z,32.53
2019-06-27T19:57:50.349Z,33.66
2019-06-27T20:00:21.552Z,34.47
2019-06-27T20:02:52.434Z,34.36
2019-06-27T20:05:23.140Z,33.89
2019-06-27T20:07:54.117Z,33.60
2019-06-27T20:10:25.146Z,33.30
2019-06-27T20:12:55.877Z,33.42
2019-06-27T20:15:26.650Z,33.91
2019-06-27T20:17:57.364Z,34.20
2019-06-27T20:20:28.305Z,33.39
2019-06-27T20:22:59.080Z,32.96
2019-06-27T20:25:29.891Z,32.26
2019-06-27T20:28:00.582Z,31.26
2019-06-27T20:30:31.340Z,31.92
2019-06-27T20:33:02.074Z,32.21
2019-06-27T20:35:33.027Z,31.40
2019-06-27T20:38:03.946Z,31.49
2019-06-27T20:40:34.686Z,31.65
2019-06-27T20:43:05.639Z,31.74
2019-06-27T20:45:36.631Z,31.50
2019-06-27T20:48:07.357Z,30.94
2019-06-27T20:50:38.096Z,31.22
2019-06-27T20:53:08.773Z,30.89
2019-06-27T20:55:39.592Z,31.03
2019-06-27T20:58:10.535Z,31.10
2019-06-27T21:00:41.535Z,31.43
2019-06-27T21:03:12.912Z,31.02
2019-06-27T21:05:43.758Z,31.62
2019-06-27T21:08:14.463Z,31.65
2019-06-27T21:10:45.543Z,31.86
2019-06-27T21:13:16.206Z,32.01
2019-06-27T21:15:50.243Z,32.20
2019-06-27T21:18:20.456Z,31.85
2019-06-27T21:20:51.232Z,31.57
2019-06-27T21:23:22.363Z,31.29
2019-06-27T21:25:53.557Z,32.74
2019-06-27T21:28:24.262Z,34.71
2019-06-27T21:30:54.979Z,34.76
2019-06-27T21:33:26.035Z,33.43
2019-06-27T21:35:56.941Z,36.64
2019-06-27T21:38:27.629Z,37.84
2019-06-27T21:40:58.469Z,39.05
2019-06-27T21:43:29.212Z,37.91
2019-06-27T21:46:00.008Z,40.60
2019-06-27T21:48:30.682Z,40.60
2019-06-27T21:51:01.421Z,45.02
2019-06-27T21:53:32.115Z,44.76
2019-06-27T21:56:02.834Z,44.88
2019-06-27T21:58:33.710Z,46.05
2019-06-27T22:02:41.570Z,47.87
2019-06-27T22:05:13.168Z,49.22
2019-06-27T22:07:44.025Z,49.67
2019-06-27T22:10:15.317Z,48.57
2019-06-27T22:12:46.503Z,46.48
2019-06-27T22:15:17.977Z,48.79
2019-06-27T22:17:48.701Z,48.79
2019-06-27T22:20:19.919Z,47.96
2019-06-27T22:22:50.715Z,46.20
2019-06-27T22:25:21.400Z,48.26
2019-06-27T22:27:52.341Z,49.90
2019-06-27T22:30:23.139Z,50.28
2019-06-27T22:32:53.913Z,50.64
2019-06-27T22:35:24.662Z,50.64
2019-06-27T22:38:13.077Z,48.15
2019-06-27T22:41:01.698Z,48.50
2019-06-27T22:43:49.995Z,49.59
2019-06-27T22:46:38.594Z,49.59
2019-06-27T22:49:08.957Z,50.29
2019-06-27T22:51:56.670Z,49.20
2019-06-27T22:54:27.654Z,51.19
2019-06-27T22:56:58.392Z,51.19
2019-06-27T22:59:29.449Z,50.60
2019-06-27T23:02:00.366Z,54.79
2019-06-27T23:04:31.277Z,51.55
2019-06-27T23:07:02.355Z,52.66
2019-06-27T23:09:33.108Z,53.43
2019-06-27T23:12:04.156Z,52.98
2019-06-27T23:14:35.527Z,52.98
2019-06-27T23:17:06.194Z,53.99
2019-06-27T23:19:36.923Z,55.49
2019-06-27T23:22:08.011Z,55.42
2019-06-27T23:24:38.947Z,55.42
2019-06-27T23:27:09.699Z,55.69
2019-06-27T23:29:40.486Z,55.93
2019-06-27T23:32:11.208Z,55.93
2019-06-27T23:34:41.994Z,55.98
2019-06-27T23:37:31.762Z,54.36
2019-06-27T23:40:13.591Z,54.36
2019-06-27T23:42:35.054Z,56.43
2019-06-27T23:45:06.328Z,55.43
2019-06-27T23:47:37.320Z,55.94
2019-06-27T23:50:09.685Z,54.74
2019-06-27T23:52:40.544Z,55.42
2019-06-27T23:55:12.687Z,55.39
2019-06-27T23:57:43.449Z,54.85
